createdAt,value
2018-11-21T00:00:13.428Z,20.96
2018-11-21T00:01:03.963Z,20.94
2018-11-21T00:01:54.645Z,20.94
2018-11-21T00:02:45.070Z,20.93
2018-11-21T00:03:35.638Z,20.94
2018-11-21T00:04:26.056Z,20.95
2018-11-21T00:05:16.633Z,20.98
2018-11-21T00:06:07.040Z,20.98
2018-11-21T00:06:57.547Z,20.97
2018-11-21T00:07:48.017Z,20.95
2018-11-21T00:08:38.461Z,20.98
2018-11-21T00:09:28.908Z,20.96
2018-11-21T00:10:19.138Z,20.95
2018-11-21T00:11:09.213Z,20.94
2018-11-21T00:11:59.374Z,20.96
2018-11-21T00:12:49.804Z,20.95
2018-11-21T00:13:40.297Z,20.93
2018-11-21T00:14:30.935Z,20.93
2018-11-21T00:15:21.559Z,20.94
2018-11-21T00:16:12.207Z,20.94
2018-11-21T00:17:02.702Z,20.95
2018-11-21T00:17:53.167Z,20.93
2018-11-21T00:18:43.747Z,20.96
2018-11-21T00:19:34.270Z,20.96
2018-11-21T00:20:24.696Z,20.94
2018-11-21T00:21:15.204Z,20.95
2018-11-21T00:22:05.327Z,20.94
2018-11-21T00:22:55.507Z,20.95
2018-11-21T00:23:46.121Z,20.95
2018-11-21T00:24:36.168Z,20.95
2018-11-21T00:25:26.217Z,20.95
2018-11-21T00:26:16.297Z,20.94
2018-11-21T00:27:06.380Z,20.96
2018-11-21T00:27:56.500Z,20.95
2018-11-21T00:28:46.508Z,20.95
2018-11-21T00:29:37.024Z,20.94
2018-11-21T00:30:27.148Z,20.93
2018-11-21T00:31:17.202Z,20.94
2018-11-21T00:32:07.789Z,20.96
2018-11-21T00:32:58.277Z,20.95
2018-11-21T00:33:48.422Z,20.94
2018-11-21T00:34:38.562Z,20.93
2018-11-21T00:35:28.743Z,20.94
2018-11-21T00:36:19.193Z,20.94
2018-11-21T00:37:09.324Z,20.93
2018-11-21T00:37:59.865Z,20.92
2018-11-21T00:38:50.467Z,20.94
2018-11-21T00:39:40.953Z,20.96
2018-11-21T00:40:30.955Z,20.94
2018-11-21T00:41:21.376Z,20.93
2018-11-21T00:42:11.515Z,20.93
2018-11-21T00:43:02.039Z,20.90
2018-11-21T00:43:52.167Z,20.93
2018-11-21T00:44:42.642Z,20.91
2018-11-21T00:45:32.713Z,20.92
2018-11-21T00:46:22.953Z,20.92
2018-11-21T00:47:13.478Z,20.92
2018-11-21T00:48:03.986Z,20.91
2018-11-21T00:48:54.044Z,20.93
2018-11-21T00:49:44.231Z,20.95
2018-11-21T00:50:34.274Z,20.95
2018-11-21T00:51:24.246Z,20.93
2018-11-21T00:52:14.669Z,20.92
2018-11-21T00:53:04.908Z,20.93
2018-11-21T00:53:55.113Z,20.91
2018-11-21T00:54:45.464Z,20.94
2018-11-21T00:55:35.909Z,20.91
2018-11-21T00:56:25.884Z,20.90
2018-11-21T00:57:15.943Z,20.92
2018-11-21T00:58:06.221Z,20.90
2018-11-21T00:58:56.734Z,20.93
2018-11-21T00:59:47.217Z,20.96
2018-11-21T01:00:37.332Z,20.94
2018-11-21T01:01:27.808Z,20.93
2018-11-21T01:02:18.450Z,20.94
2018-11-21T01:03:08.708Z,20.92
2018-11-21T01:03:58.929Z,20.94
2018-11-21T01:04:49.416Z,20.95
2018-11-21T01:05:39.606Z,20.93
2018-11-21T01:06:29.830Z,20.93
2018-11-21T01:07:20.266Z,20.94
2018-11-21T01:08:10.308Z,20.94
2018-11-21T01:09:00.646Z,20.96
2018-11-21T01:09:50.672Z,20.95
2018-11-21T01:10:41.139Z,20.94
2018-11-21T01:11:31.136Z,20.93
2018-11-21T01:12:21.202Z,20.95
2018-11-21T01:13:11.852Z,20.92
2018-11-21T01:14:01.950Z,20.92
2018-11-21T01:14:51.955Z,20.92
2018-11-21T01:15:42.498Z,20.92
2018-11-21T01:16:33.180Z,20.93
2018-11-21T01:17:23.701Z,20.93
2018-11-21T01:18:14.194Z,20.94
2018-11-21T01:19:04.752Z,20.93
2018-11-21T01:19:54.945Z,20.95
2018-11-21T01:20:45.499Z,20.95
2018-11-21T01:21:35.606Z,20.95
2018-11-21T01:22:25.824Z,20.95
2018-11-21T01:23:15.915Z,20.94
2018-11-21T01:24:06.595Z,20.92
2018-11-21T01:24:57.187Z,20.93
2018-11-21T01:25:47.979Z,20.92
2018-11-21T01:26:38.092Z,20.92
2018-11-21T01:27:28.323Z,20.93
2018-11-21T01:28:18.449Z,20.92
2018-11-21T01:29:08.605Z,20.90
2018-11-21T01:29:58.652Z,20.93
2018-11-21T01:30:49.179Z,20.91
2018-11-21T01:31:39.773Z,20.93
2018-11-21T01:32:30.412Z,20.94
2018-11-21T01:33:20.994Z,20.94
2018-11-21T01:34:11.086Z,20.90
2018-11-21T01:35:01.687Z,20.92
2018-11-21T01:35:52.219Z,20.91
2018-11-21T01:36:42.292Z,20.91
2018-11-21T01:37:32.264Z,20.92
2018-11-21T01:38:22.340Z,20.93
2018-11-21T01:39:12.480Z,20.93
2018-11-21T01:40:03.075Z,20.93
2018-11-21T01:40:53.128Z,20.91
2018-11-21T01:41:43.341Z,20.93
2018-11-21T01:42:33.768Z,20.91
2018-11-21T01:43:24.323Z,20.91
2018-11-21T01:44:14.956Z,20.90
2018-11-21T01:45:05.476Z,20.90
2018-11-21T01:45:55.936Z,20.90
2018-11-21T01:46:46.673Z,20.93
2018-11-21T01:47:36.716Z,20.90
2018-11-21T01:48:26.761Z,20.94
2018-11-21T01:49:16.973Z,20.93
2018-11-21T01:50:07.136Z,20.91
2018-11-21T01:50:57.582Z,20.93
2018-11-21T01:51:47.721Z,20.93
2018-11-21T01:52:37.833Z,20.93
2018-11-21T01:53:27.873Z,20.92
2018-11-21T01:54:18.205Z,20.90
2018-11-21T01:55:08.851Z,20.92
2018-11-21T01:55:59.367Z,20.95
2018-11-21T01:56:49.333Z,20.94
2018-11-21T01:57:39.812Z,20.94
2018-11-21T01:58:30.006Z,20.93
2018-11-21T01:59:20.067Z,20.91
2018-11-21T02:00:10.052Z,20.90
2018-11-21T02:01:00.717Z,20.92
2018-11-21T02:01:51.329Z,20.90
2018-11-21T02:02:41.380Z,20.90
2018-11-21T02:03:31.406Z,20.90
2018-11-21T02:04:21.498Z,20.90
2018-11-21T02:05:11.953Z,20.90
2018-11-21T02:06:02.142Z,20.90
2018-11-21T02:06:52.655Z,20.89
2018-11-21T02:07:43.056Z,20.90
2018-11-21T02:08:33.748Z,20.89
2018-11-21T02:09:24.597Z,20.89
2018-11-21T02:10:14.945Z,20.92
2018-11-21T02:11:05.008Z,20.90
2018-11-21T02:11:55.100Z,20.90
2018-11-21T02:12:45.544Z,20.91
2018-11-21T02:13:36.131Z,20.91
2018-11-21T02:14:26.805Z,20.94
2018-11-21T02:15:16.863Z,20.92
2018-11-21T02:16:07.001Z,20.92
2018-11-21T02:16:57.338Z,20.91
2018-11-21T02:17:47.503Z,20.90
2018-11-21T02:18:37.619Z,20.92
2018-11-21T02:19:28.153Z,20.94
2018-11-21T02:20:18.553Z,20.95
2018-11-21T02:21:08.735Z,20.95
2018-11-21T02:21:58.876Z,20.96
2018-11-21T02:22:49.381Z,20.93
2018-11-21T02:23:39.400Z,20.93
2018-11-21T02:24:29.639Z,20.92
2018-11-21T02:25:19.824Z,20.94
2018-11-21T02:26:10.146Z,20.94
2018-11-21T02:27:00.507Z,20.96
2018-11-21T02:27:50.957Z,20.96
2018-11-21T02:28:41.633Z,20.95
2018-11-21T02:29:31.743Z,20.95
2018-11-21T02:30:22.128Z,20.95
2018-11-21T02:31:12.528Z,20.93
2018-11-21T02:32:02.594Z,20.94
2018-11-21T02:32:52.664Z,20.96
2018-11-21T02:33:43.212Z,20.93
2018-11-21T02:34:33.763Z,20.94
2018-11-21T02:35:24.198Z,20.93
2018-11-21T02:36:14.912Z,20.94
2018-11-21T02:37:04.940Z,20.93
2018-11-21T02:37:55.029Z,20.93
2018-11-21T02:38:45.059Z,20.93
2018-11-21T02:39:35.459Z,20.92
2018-11-21T02:40:25.996Z,20.92
2018-11-21T02:41:16.074Z,20.93
2018-11-21T02:42:06.133Z,20.93
2018-11-21T02:42:56.673Z,20.93
2018-11-21T02:43:47.290Z,20.94
2018-11-21T02:44:37.630Z,20.94
2018-11-21T02:45:27.719Z,20.93
2018-11-21T02:46:17.905Z,20.92
2018-11-21T02:47:07.877Z,20.93
2018-11-21T02:47:58.080Z,20.94
2018-11-21T02:48:48.666Z,20.92
2018-11-21T02:49:39.182Z,20.93
2018-11-21T02:50:29.636Z,20.94
2018-11-21T02:51:20.321Z,20.94
2018-11-21T02:52:10.741Z,20.94
2018-11-21T02:53:00.699Z,20.93
2018-11-21T02:53:51.158Z,20.93
2018-11-21T02:54:41.831Z,20.93
2018-11-21T02:55:31.889Z,20.94
2018-11-21T02:56:22.317Z,20.91
2018-11-21T02:57:12.394Z,20.94
2018-11-21T02:58:02.885Z,20.93
2018-11-21T02:58:53.118Z,20.94
2018-11-21T02:59:43.244Z,20.93
2018-11-21T03:00:33.320Z,20.94
2018-11-21T03:01:23.757Z,20.94
2018-11-21T03:02:13.842Z,20.93
2018-11-21T03:03:04.545Z,20.93
2018-11-21T03:03:55.029Z,20.93
2018-11-21T03:04:45.440Z,20.94
2018-11-21T03:05:36.090Z,20.96
2018-11-21T03:06:26.805Z,20.95
2018-11-21T03:07:17.367Z,20.94
2018-11-21T03:08:07.812Z,20.95
2018-11-21T03:08:58.296Z,20.95
2018-11-21T03:09:48.630Z,20.96
2018-11-21T03:10:39.172Z,20.95
2018-11-21T03:11:29.773Z,20.94
2018-11-21T03:12:19.759Z,20.96
2018-11-21T03:13:09.818Z,20.95
2018-11-21T03:14:00.415Z,20.94
2018-11-21T03:14:50.814Z,20.96
2018-11-21T03:15:41.511Z,20.93
2018-11-21T03:16:31.569Z,20.94
2018-11-21T03:17:21.641Z,20.94
2018-11-21T03:18:12.196Z,20.95
2018-11-21T03:19:02.328Z,20.94
2018-11-21T03:19:52.609Z,20.94
2018-11-21T03:20:42.641Z,20.95
2018-11-21T03:21:32.843Z,20.96
2018-11-21T03:22:23.382Z,20.94
2018-11-21T03:23:13.436Z,20.94
2018-11-21T03:24:03.775Z,20.94
2018-11-21T03:24:54.224Z,20.94
2018-11-21T03:25:44.454Z,20.93
2018-11-21T03:26:34.673Z,20.94
2018-11-21T03:27:24.754Z,20.94
2018-11-21T03:28:15.322Z,20.94
2018-11-21T03:29:05.915Z,20.95
2018-11-21T03:29:56.472Z,20.93
2018-11-21T03:30:46.973Z,20.92
2018-11-21T03:31:37.078Z,20.93
2018-11-21T03:32:27.781Z,20.93
2018-11-21T03:33:18.373Z,20.94
2018-11-21T03:34:08.921Z,20.96
2018-11-21T03:34:58.977Z,20.94
2018-11-21T03:35:49.075Z,20.93
2018-11-21T03:37:29.769Z,20.94
2018-11-21T03:38:19.829Z,20.95
2018-11-21T03:39:09.945Z,20.95
2018-11-21T03:40:00.453Z,20.95
2018-11-21T03:40:50.579Z,20.94
2018-11-21T03:41:40.702Z,20.95
2018-11-21T03:42:30.873Z,20.94
2018-11-21T03:43:21.470Z,20.93
2018-11-21T03:44:12.181Z,20.94
2018-11-21T03:45:02.253Z,20.93
2018-11-21T03:45:52.374Z,20.94
2018-11-21T03:46:42.787Z,20.95
2018-11-21T03:47:33.037Z,20.95
2018-11-21T03:48:23.659Z,20.96
2018-11-21T03:49:14.140Z,20.94
2018-11-21T03:50:04.304Z,20.92
2018-11-21T03:50:54.341Z,20.93
2018-11-21T03:51:44.702Z,20.94
2018-11-21T03:52:34.809Z,20.94
2018-11-21T03:53:24.967Z,20.93
2018-11-21T03:54:15.451Z,20.92
2018-11-21T03:55:05.965Z,20.93
2018-11-21T03:55:56.723Z,20.92
2018-11-21T03:56:47.435Z,20.90
2018-11-21T03:57:37.740Z,20.90
2018-11-21T03:58:28.197Z,20.90
2018-11-21T03:59:18.813Z,20.92
2018-11-21T04:00:09.419Z,20.90
2018-11-21T04:00:59.820Z,20.91
2018-11-21T04:01:50.466Z,20.93
2018-11-21T04:02:40.515Z,20.93
2018-11-21T04:03:31.184Z,20.93
2018-11-21T04:04:21.271Z,20.93
2018-11-21T04:05:11.342Z,20.94
2018-11-21T04:06:01.720Z,20.94
2018-11-21T04:06:52.416Z,20.95
2018-11-21T04:07:42.521Z,20.94
2018-11-21T04:08:32.895Z,20.95
2018-11-21T04:09:23.257Z,20.95
2018-11-21T04:10:13.803Z,20.96
2018-11-21T04:11:04.593Z,20.97
2018-11-21T04:11:54.661Z,20.96
2018-11-21T04:12:45.185Z,20.95
2018-11-21T04:13:35.656Z,20.97
2018-11-21T04:14:25.810Z,21.00
2018-11-21T04:15:16.388Z,20.98
2018-11-21T04:16:06.799Z,20.97
2018-11-21T04:16:56.973Z,20.97
2018-11-21T04:17:47.261Z,20.96
2018-11-21T04:18:37.478Z,20.99
2018-11-21T04:19:27.572Z,20.99
2018-11-21T04:20:17.593Z,20.98
2018-11-21T04:21:07.653Z,20.97
2018-11-21T04:21:58.252Z,21.00
2018-11-21T04:22:48.366Z,21.00
2018-11-21T04:23:38.460Z,20.97
2018-11-21T04:24:28.757Z,20.99
2018-11-21T04:25:18.868Z,20.98
2018-11-21T04:26:11.633Z,20.98
2018-11-21T04:26:59.708Z,20.98
2018-11-21T04:27:50.150Z,20.95
2018-11-21T04:28:40.187Z,20.96
2018-11-21T04:29:30.775Z,20.96
2018-11-21T04:30:21.393Z,20.96
2018-11-21T04:31:11.734Z,20.95
2018-11-21T04:32:01.751Z,20.96
2018-11-21T04:32:51.933Z,20.96
2018-11-21T04:33:42.051Z,20.96
2018-11-21T04:34:32.121Z,20.97
2018-11-21T04:35:22.669Z,20.96
2018-11-21T04:36:13.087Z,21.00
2018-11-21T04:37:03.813Z,20.97
2018-11-21T04:37:54.334Z,20.98
2018-11-21T04:38:44.605Z,20.98
2018-11-21T04:39:34.667Z,20.99
2018-11-21T04:40:25.244Z,20.98
2018-11-21T04:41:15.788Z,21.02
2018-11-21T04:42:06.352Z,20.98
2018-11-21T04:42:56.975Z,20.98
2018-11-21T04:43:47.468Z,20.98
2018-11-21T04:44:37.930Z,20.98
2018-11-21T04:45:28.396Z,20.98
2018-11-21T04:46:18.883Z,20.98
2018-11-21T04:47:09.461Z,20.98
2018-11-21T04:47:59.817Z,21.01
2018-11-21T04:48:50.335Z,21.00
2018-11-21T04:49:40.447Z,20.99
2018-11-21T04:50:30.651Z,20.99
2018-11-21T04:51:21.047Z,21.00
2018-11-21T04:52:11.723Z,20.99
2018-11-21T04:53:02.009Z,20.98
2018-11-21T04:53:52.041Z,20.97
2018-11-21T04:54:42.155Z,21.00
2018-11-21T04:55:32.722Z,20.98
2018-11-21T04:56:23.330Z,20.97
2018-11-21T04:57:13.791Z,20.98
2018-11-21T04:58:04.329Z,20.98
2018-11-21T04:58:54.749Z,21.01
2018-11-21T04:59:45.347Z,20.98
2018-11-21T05:00:35.577Z,20.97
2018-11-21T05:01:25.884Z,20.97
2018-11-21T05:02:16.344Z,20.99
2018-11-21T05:03:06.999Z,20.99
2018-11-21T05:03:57.089Z,21.03
2018-11-21T05:04:47.621Z,20.99
2018-11-21T05:05:37.724Z,21.03
2018-11-21T05:06:28.203Z,21.03
2018-11-21T05:07:18.768Z,21.02
2018-11-21T05:08:09.305Z,21.03
2018-11-21T05:08:59.777Z,21.00
2018-11-21T05:09:49.878Z,21.01
2018-11-21T05:10:40.056Z,21.02
2018-11-21T05:11:30.671Z,21.02
2018-11-21T05:12:20.753Z,21.01
2018-11-21T05:13:11.245Z,21.01
2018-11-21T05:14:01.244Z,20.98
2018-11-21T05:14:51.873Z,20.97
2018-11-21T05:15:41.935Z,20.96
2018-11-21T05:16:32.167Z,20.97
2018-11-21T05:17:22.238Z,20.97
2018-11-21T05:18:12.929Z,20.97
2018-11-21T05:19:03.478Z,20.98
2018-11-21T05:19:53.802Z,20.97
2018-11-21T05:20:44.300Z,20.96
2018-11-21T05:21:34.358Z,20.95
2018-11-21T05:22:24.427Z,20.92
2018-11-21T05:23:15.088Z,20.91
2018-11-21T05:24:05.610Z,20.92
2018-11-21T05:24:56.068Z,20.98
2018-11-21T05:25:46.639Z,20.96
2018-11-21T05:26:37.197Z,20.96
2018-11-21T05:27:27.617Z,20.99
2018-11-21T05:28:18.214Z,20.97
2018-11-21T05:29:08.365Z,20.95
2018-11-21T05:29:58.669Z,20.97
2018-11-21T05:30:48.706Z,20.98
2018-11-21T05:31:38.926Z,20.94
2018-11-21T05:32:28.945Z,20.94
2018-11-21T05:33:19.177Z,20.95
2018-11-21T05:34:09.734Z,20.98
2018-11-21T05:35:00.201Z,20.97
2018-11-21T05:35:50.269Z,20.96
2018-11-21T05:36:40.552Z,20.95
2018-11-21T05:37:30.677Z,20.94
2018-11-21T05:38:21.022Z,20.97
2018-11-21T05:39:11.059Z,20.99
2018-11-21T05:40:01.746Z,21.01
2018-11-21T05:40:52.282Z,21.03
2018-11-21T05:41:42.426Z,21.02
2018-11-21T05:42:32.817Z,21.07
2018-11-21T05:43:23.159Z,21.08
2018-11-21T05:44:13.153Z,21.08
2018-11-21T05:45:03.802Z,21.09
2018-11-21T05:45:54.303Z,21.11
2018-11-21T05:46:44.657Z,21.11
2018-11-21T05:47:35.082Z,21.13
2018-11-21T05:48:25.766Z,21.13
2018-11-21T05:49:15.780Z,21.13
2018-11-21T05:50:05.829Z,21.16
2018-11-21T05:50:55.827Z,21.19
2018-11-21T05:51:46.432Z,21.24
2018-11-21T05:52:37.043Z,21.27
2018-11-21T05:53:26.991Z,21.25
2018-11-21T05:54:17.671Z,21.26
2018-11-21T05:55:08.207Z,21.23
2018-11-21T05:55:58.980Z,21.27
2018-11-21T05:56:48.982Z,21.25
2018-11-21T05:57:39.508Z,21.22
2018-11-21T05:58:29.898Z,21.21
2018-11-21T05:59:19.936Z,21.19
2018-11-21T06:00:10.403Z,21.19
2018-11-21T06:01:00.489Z,21.18
2018-11-21T06:01:50.401Z,21.15
2018-11-21T06:02:41.033Z,21.14
2018-11-21T06:03:31.224Z,21.14
2018-11-21T06:04:21.555Z,21.13
2018-11-21T06:05:11.713Z,21.12
2018-11-21T06:06:02.100Z,21.10
2018-11-21T06:06:52.166Z,21.10
2018-11-21T06:07:42.747Z,21.11
2018-11-21T06:08:32.798Z,21.11
2018-11-21T06:09:23.040Z,21.10
2018-11-21T06:10:13.438Z,21.09
2018-11-21T06:11:03.647Z,21.10
2018-11-21T06:11:53.864Z,21.11
2018-11-21T06:12:44.360Z,21.10
2018-11-21T06:13:34.832Z,21.10
2018-11-21T06:14:24.823Z,21.10
2018-11-21T06:15:15.093Z,21.09
2018-11-21T06:16:05.183Z,21.09
2018-11-21T06:16:55.293Z,21.09
2018-11-21T06:17:48.317Z,21.08
2018-11-21T06:18:35.581Z,21.09
2018-11-21T06:19:27.255Z,21.09
2018-11-21T06:20:16.668Z,21.08
2018-11-21T06:21:07.097Z,21.08
2018-11-21T06:21:57.513Z,21.06
2018-11-21T06:22:48.125Z,21.07
2018-11-21T06:23:38.642Z,21.07
2018-11-21T06:24:28.649Z,21.08
2018-11-21T06:25:19.207Z,21.06
2018-11-21T06:26:09.305Z,21.06
2018-11-21T06:27:00.158Z,21.07
2018-11-21T06:27:50.517Z,21.07
2018-11-21T06:28:40.580Z,21.06
2018-11-21T06:29:30.999Z,21.06
2018-11-21T06:30:21.517Z,21.08
2018-11-21T06:31:12.097Z,21.06
2018-11-21T06:32:02.661Z,21.07
2018-11-21T06:32:52.734Z,21.08
2018-11-21T06:33:42.810Z,21.07
2018-11-21T06:34:33.402Z,21.07
2018-11-21T06:35:23.919Z,21.06
2018-11-21T06:36:14.523Z,21.06
2018-11-21T06:37:04.633Z,21.06
2018-11-21T06:37:54.900Z,21.05
2018-11-21T06:38:45.498Z,21.05
2018-11-21T06:39:35.843Z,21.05
2018-11-21T06:40:25.873Z,21.04
2018-11-21T06:41:16.207Z,21.03
2018-11-21T06:42:06.368Z,21.05
2018-11-21T06:42:56.482Z,21.04
2018-11-21T06:43:46.955Z,21.04
2018-11-21T06:44:37.086Z,21.04
2018-11-21T06:45:27.707Z,21.05
2018-11-21T06:46:17.734Z,21.04
2018-11-21T06:47:08.184Z,21.05
2018-11-21T06:47:58.746Z,21.04
2018-11-21T06:48:48.891Z,21.03
2018-11-21T06:49:38.976Z,21.04
2018-11-21T06:50:29.221Z,21.05
2018-11-21T06:51:19.246Z,21.04
2018-11-21T06:52:09.577Z,21.04
2018-11-21T06:52:59.677Z,21.03
2018-11-21T06:53:50.213Z,21.04
2018-11-21T06:54:40.602Z,21.03
2018-11-21T06:55:31.011Z,21.04
2018-11-21T06:56:21.132Z,21.03
2018-11-21T06:57:11.533Z,21.04
2018-11-21T06:58:02.015Z,21.02
2018-11-21T06:58:55.221Z,21.03
2018-11-21T06:59:42.954Z,21.03
2018-11-21T07:00:33.651Z,21.04
2018-11-21T07:01:23.770Z,21.04
2018-11-21T07:02:14.350Z,21.03
2018-11-21T07:03:04.872Z,21.03
2018-11-21T07:03:55.009Z,21.04
2018-11-21T07:04:45.483Z,21.06
2018-11-21T07:05:35.586Z,21.06
2018-11-21T07:06:26.301Z,21.06
2018-11-21T07:07:16.797Z,21.03
2018-11-21T07:08:07.391Z,21.04
2018-11-21T07:08:57.443Z,21.04
2018-11-21T07:09:47.868Z,21.02
2018-11-21T07:10:37.996Z,21.03
2018-11-21T07:11:28.612Z,21.02
2018-11-21T07:12:19.153Z,21.03
2018-11-21T07:13:11.235Z,21.02
2018-11-21T07:14:00.316Z,21.01
2018-11-21T07:14:49.782Z,21.02
2018-11-21T07:15:40.368Z,20.99
2018-11-21T07:16:30.916Z,21.00
2018-11-21T07:17:21.423Z,20.99
2018-11-21T07:18:11.529Z,20.98
2018-11-21T07:19:02.161Z,20.97
2018-11-21T07:19:52.151Z,20.98
2018-11-21T07:20:42.212Z,21.00
2018-11-21T07:21:32.832Z,20.99
2018-11-21T07:22:22.944Z,20.99
2018-11-21T07:23:13.487Z,20.97
2018-11-21T07:24:03.500Z,21.01
2018-11-21T07:24:53.580Z,20.99
2018-11-21T07:25:43.819Z,20.98
2018-11-21T07:26:34.012Z,20.98
2018-11-21T07:27:24.483Z,20.99
2018-11-21T07:28:14.938Z,20.99
2018-11-21T07:29:05.003Z,20.99
2018-11-21T07:29:55.027Z,20.98
2018-11-21T07:30:45.867Z,20.99
2018-11-21T07:31:36.387Z,20.98
2018-11-21T07:32:26.601Z,20.98
2018-11-21T07:33:16.605Z,20.99
2018-11-21T07:34:06.627Z,20.98
2018-11-21T07:34:57.137Z,20.97
2018-11-21T07:35:47.203Z,20.99
2018-11-21T07:36:37.368Z,20.99
2018-11-21T07:37:27.828Z,20.98
2018-11-21T07:38:18.351Z,20.98
2018-11-21T07:39:09.077Z,20.97
2018-11-21T07:39:59.468Z,20.96
2018-11-21T07:40:50.034Z,20.98
2018-11-21T07:41:40.668Z,20.96
2018-11-21T07:42:31.203Z,20.99
2018-11-21T07:43:21.730Z,20.99
2018-11-21T07:44:12.181Z,20.99
2018-11-21T07:45:02.277Z,20.98
2018-11-21T07:45:53.054Z,20.98
2018-11-21T07:46:43.523Z,21.00
2018-11-21T07:47:33.961Z,20.99
2018-11-21T07:48:24.219Z,20.98
2018-11-21T07:49:14.341Z,21.02
2018-11-21T07:50:04.823Z,21.03
2018-11-21T07:50:54.947Z,21.01
2018-11-21T07:51:46.187Z,21.00
2018-11-21T07:52:35.628Z,20.99
2018-11-21T07:53:25.909Z,20.99
2018-11-21T07:54:16.421Z,21.01
2018-11-21T07:55:06.848Z,21.00
2018-11-21T07:55:57.260Z,21.00
2018-11-21T07:56:47.877Z,21.00
2018-11-21T07:57:38.366Z,20.99
2018-11-21T07:58:28.798Z,20.98
2018-11-21T07:59:19.272Z,20.96
2018-11-21T08:00:09.656Z,20.99
2018-11-21T08:00:59.723Z,20.97
2018-11-21T08:01:50.035Z,20.98
2018-11-21T08:02:40.048Z,20.97
2018-11-21T08:03:30.267Z,20.97
2018-11-21T08:04:20.446Z,20.96
2018-11-21T08:05:11.107Z,20.96
2018-11-21T08:06:01.645Z,20.97
2018-11-21T08:06:52.127Z,20.99
2018-11-21T08:07:42.917Z,20.97
2018-11-21T08:08:33.463Z,20.98
2018-11-21T08:09:23.936Z,20.98
2018-11-21T08:10:14.358Z,20.97
2018-11-21T08:11:04.864Z,20.97
2018-11-21T08:11:55.278Z,20.96
2018-11-21T08:12:45.871Z,20.96
2018-11-21T08:13:36.235Z,20.96
2018-11-21T08:14:26.764Z,20.95
2018-11-21T08:15:19.352Z,20.99
2018-11-21T08:16:07.225Z,21.02
2018-11-21T08:16:57.705Z,21.00
2018-11-21T08:17:48.229Z,20.99
2018-11-21T08:18:38.283Z,20.99
2018-11-21T08:19:28.858Z,20.99
2018-11-21T08:20:19.512Z,20.98
2018-11-21T08:21:10.047Z,21.02
2018-11-21T08:22:02.834Z,21.00
2018-11-21T08:22:50.362Z,20.99
2018-11-21T08:23:40.398Z,21.00
2018-11-21T08:24:30.884Z,21.02
2018-11-21T08:25:21.143Z,21.01
2018-11-21T08:26:11.159Z,21.00
2018-11-21T08:27:01.382Z,21.03
2018-11-21T08:27:51.446Z,21.03
2018-11-21T08:28:41.382Z,21.01
2018-11-21T08:29:31.515Z,21.00
2018-11-21T08:30:21.989Z,21.00
2018-11-21T08:31:12.564Z,21.01
2018-11-21T08:32:03.106Z,21.05
2018-11-21T08:32:53.525Z,21.09
2018-11-21T08:33:43.953Z,21.07
2018-11-21T08:34:34.592Z,21.11
2018-11-21T08:35:25.224Z,21.07
2018-11-21T08:36:15.311Z,21.10
2018-11-21T08:37:05.825Z,21.08
2018-11-21T08:37:56.461Z,21.10
2018-11-21T08:38:46.992Z,21.13
2018-11-21T08:39:37.417Z,21.12
2018-11-21T08:40:27.402Z,21.15
2018-11-21T08:41:17.467Z,21.15
2018-11-21T08:42:08.037Z,21.15
2018-11-21T08:42:58.777Z,21.13
2018-11-21T08:43:48.891Z,21.13
2018-11-21T08:44:39.004Z,21.14
2018-11-21T08:45:29.711Z,21.15
2018-11-21T08:46:20.195Z,21.13
2018-11-21T08:47:10.501Z,21.11
2018-11-21T08:48:00.575Z,21.13
2018-11-21T08:48:50.899Z,21.15
2018-11-21T08:49:41.540Z,21.15
2018-11-21T08:50:32.044Z,21.14
2018-11-21T08:51:22.084Z,21.13
2018-11-21T08:52:12.450Z,21.11
2018-11-21T08:53:02.649Z,21.12
2018-11-21T08:53:52.851Z,21.13
2018-11-21T08:54:43.369Z,21.15
2018-11-21T08:55:33.397Z,21.13
2018-11-21T08:56:23.927Z,21.13
2018-11-21T08:57:13.967Z,21.13
2018-11-21T08:58:03.941Z,21.13
2018-11-21T08:58:54.070Z,21.10
2018-11-21T08:59:44.560Z,21.09
2018-11-21T09:00:35.223Z,21.06
2018-11-21T09:01:25.801Z,21.04
2018-11-21T09:02:16.310Z,21.01
2018-11-21T09:03:06.319Z,21.03
2018-11-21T09:03:56.440Z,21.05
2018-11-21T09:04:46.541Z,21.04
2018-11-21T09:05:36.994Z,21.06
2018-11-21T09:06:27.191Z,21.09
2018-11-21T09:07:17.657Z,21.06
2018-11-21T09:08:07.828Z,21.06
2018-11-21T09:08:58.071Z,21.06
2018-11-21T09:09:48.852Z,21.05
2018-11-21T09:10:39.404Z,21.06
2018-11-21T09:11:29.823Z,21.06
2018-11-21T09:12:20.466Z,21.10
2018-11-21T09:13:10.549Z,21.15
2018-11-21T09:14:01.064Z,21.17
2018-11-21T09:14:51.515Z,21.15
2018-11-21T09:15:42.122Z,21.16
2018-11-21T09:16:32.249Z,21.14
2018-11-21T09:17:22.188Z,21.18
2018-11-21T09:18:12.185Z,21.22
2018-11-21T09:19:02.566Z,21.28
2018-11-21T09:19:53.294Z,21.29
2018-11-21T09:20:43.755Z,21.31
2018-11-21T09:21:33.842Z,21.35
2018-11-21T09:22:24.033Z,21.36
2018-11-21T09:23:14.061Z,21.34
2018-11-21T09:24:04.139Z,21.32
2018-11-21T09:24:54.255Z,21.36
2018-11-21T09:25:44.600Z,21.38
2018-11-21T09:26:34.652Z,21.34
2018-11-21T09:27:25.283Z,21.31
2018-11-21T09:28:15.354Z,21.33
2018-11-21T09:29:05.509Z,21.35
2018-11-21T09:29:55.763Z,21.29
2018-11-21T09:30:46.135Z,21.31
2018-11-21T09:31:36.695Z,21.28
2018-11-21T09:32:27.211Z,21.20
2018-11-21T09:33:17.202Z,21.20
2018-11-21T09:34:07.478Z,21.20
2018-11-21T09:34:57.702Z,21.21
2018-11-21T09:35:48.061Z,21.16
2018-11-21T09:36:38.601Z,21.15
2018-11-21T09:37:28.755Z,21.13
2018-11-21T09:38:19.088Z,21.14
2018-11-21T09:39:09.295Z,21.09
2018-11-21T09:39:59.811Z,21.10
2018-11-21T09:40:49.780Z,21.13
2018-11-21T09:41:40.379Z,21.14
2018-11-21T09:42:30.541Z,21.15
2018-11-21T09:43:21.011Z,21.14
2018-11-21T09:44:11.098Z,21.10
2018-11-21T09:45:01.203Z,21.11
2018-11-21T09:45:51.599Z,21.08
2018-11-21T09:46:42.181Z,21.07
2018-11-21T09:47:32.810Z,21.07
2018-11-21T09:48:25.302Z,21.05
2018-11-21T09:49:13.795Z,21.07
2018-11-21T09:50:03.930Z,21.05
2018-11-21T09:50:54.504Z,21.04
2018-11-21T09:51:44.577Z,21.02
2018-11-21T09:52:35.103Z,21.01
2018-11-21T09:53:25.177Z,21.02
2018-11-21T09:54:15.339Z,21.03
2018-11-21T09:55:05.767Z,21.06
2018-11-21T09:55:56.255Z,21.05
2018-11-21T09:56:46.551Z,21.03
2018-11-21T09:57:36.748Z,21.02
2018-11-21T09:58:26.826Z,21.00
2018-11-21T09:59:17.337Z,20.99
2018-11-21T10:00:07.411Z,20.98
2018-11-21T10:00:57.887Z,20.98
2018-11-21T10:01:48.507Z,20.98
2018-11-21T10:02:38.841Z,20.96
2018-11-21T10:03:28.932Z,20.98
2018-11-21T10:04:18.965Z,20.97
2018-11-21T10:05:09.593Z,20.97
2018-11-21T10:05:59.747Z,20.96
2018-11-21T10:06:50.313Z,20.96
2018-11-21T10:07:40.741Z,20.96
2018-11-21T10:08:31.175Z,20.95
2018-11-21T10:09:21.901Z,20.95
2018-11-21T10:10:11.940Z,20.94
2018-11-21T10:11:01.977Z,20.94
2018-11-21T10:11:52.432Z,20.95
2018-11-21T10:12:42.566Z,20.95
2018-11-21T10:13:33.182Z,20.95
2018-11-21T10:14:23.649Z,20.95
2018-11-21T10:15:13.752Z,20.95
2018-11-21T10:16:03.747Z,20.94
2018-11-21T10:16:53.873Z,20.96
2018-11-21T10:17:43.977Z,20.94
2018-11-21T10:18:34.405Z,20.95
2018-11-21T10:19:24.882Z,20.95
2018-11-21T10:20:15.428Z,20.93
2018-11-21T10:21:05.591Z,20.95
2018-11-21T10:21:56.134Z,20.96
2018-11-21T10:22:46.675Z,20.96
2018-11-21T10:23:37.186Z,20.96
2018-11-21T10:24:27.780Z,20.96
2018-11-21T10:25:18.332Z,20.95
2018-11-21T10:26:08.780Z,20.94
2018-11-21T10:26:59.281Z,20.95
2018-11-21T10:27:50.008Z,20.95
2018-11-21T10:28:40.446Z,20.93
2018-11-21T10:29:30.482Z,20.93
2018-11-21T10:30:20.743Z,20.94
2018-11-21T10:31:10.773Z,20.94
2018-11-21T10:32:01.428Z,20.94
2018-11-21T10:32:51.895Z,20.94
2018-11-21T10:33:42.268Z,20.93
2018-11-21T10:34:32.934Z,20.94
2018-11-21T10:35:23.506Z,20.93
2018-11-21T10:36:14.091Z,20.93
2018-11-21T10:37:04.106Z,20.94
2018-11-21T10:37:54.078Z,20.94
2018-11-21T10:38:44.048Z,20.93
2018-11-21T10:39:34.713Z,20.93
2018-11-21T10:40:25.294Z,20.94
2018-11-21T10:41:15.282Z,20.92
2018-11-21T10:42:05.963Z,20.94
2018-11-21T10:42:56.153Z,20.93
2018-11-21T10:43:46.212Z,20.93
2018-11-21T10:44:36.302Z,20.93
2018-11-21T10:45:26.832Z,20.94
2018-11-21T10:46:16.894Z,20.94
2018-11-21T10:47:07.535Z,20.93
2018-11-21T10:47:57.956Z,20.93
2018-11-21T10:48:48.036Z,20.94